createdAt,value
2018-07-13T00:01:43.562Z,59.67
2018-07-13T00:04:11.354Z,58.83
2018-07-13T00:06:39.321Z,59.58
2018-07-13T00:09:08.804Z,59.57
2018-07-13T00:11:36.832Z,58.96
2018-07-13T00:14:13.457Z,59.51
2018-07-13T00:16:41.977Z,59.64
2018-07-13T00:19:09.675Z,59.74
2018-07-13T00:21:37.775Z,59.69
2018-07-13T00:24:06.308Z,58.91
2018-07-13T00:26:34.061Z,58.94
2018-07-13T00:29:01.853Z,59.67
2018-07-13T00:31:29.556Z,59.72
2018-07-13T00:33:58.599Z,59.06
2018-07-13T00:36:26.542Z,59.44
2018-07-13T00:38:54.986Z,59.25
2018-07-13T00:41:23.149Z,59.46
2018-07-13T00:43:51.366Z,59.78
2018-07-13T00:46:19.586Z,59.67
2018-07-13T00:48:47.626Z,58.79
2018-07-13T00:51:15.586Z,59.01
2018-07-13T00:53:44.181Z,59.13
2018-07-13T00:56:12.231Z,58.87
2018-07-13T00:58:40.721Z,59.32
2018-07-13T01:01:08.399Z,58.99
2018-07-13T01:03:36.047Z,58.75
2018-07-13T01:06:04.201Z,58.87
2018-07-13T01:08:32.157Z,58.77
2018-07-13T01:11:00.061Z,58.72
2018-07-13T01:13:27.771Z,58.07
2018-07-13T01:15:55.921Z,57.95
2018-07-13T01:18:24.101Z,58.57
2018-07-13T01:20:51.882Z,57.93
2018-07-13T01:23:19.797Z,58.39
2018-07-13T01:25:47.794Z,58.02
2018-07-13T01:28:15.950Z,58.69
2018-07-13T01:30:43.662Z,58.65
2018-07-13T01:33:11.658Z,58.54
2018-07-13T01:35:39.346Z,58.67
2018-07-13T01:38:07.069Z,58.50
2018-07-13T01:40:34.821Z,58.85
2018-07-13T01:43:02.789Z,59.08
2018-07-13T01:45:30.446Z,58.47
2018-07-13T01:47:58.109Z,58.92
2018-07-13T01:50:25.800Z,59.20
2018-07-13T01:52:53.498Z,58.82
2018-07-13T01:55:21.555Z,58.78
2018-07-13T01:57:49.222Z,58.70
2018-07-13T02:00:17.138Z,59.10
2018-07-13T02:02:45.128Z,58.76
2018-07-13T02:05:12.801Z,58.70
2018-07-13T02:07:40.795Z,58.76
2018-07-13T02:10:08.572Z,59.52
2018-07-13T02:12:36.212Z,58.70
2018-07-13T02:15:04.057Z,58.80
2018-07-13T02:17:31.782Z,58.64
2018-07-13T02:19:59.797Z,59.35
2018-07-13T02:22:27.974Z,59.01
2018-07-13T02:24:56.077Z,59.06
2018-07-13T02:27:23.722Z,59.52
2018-07-13T02:29:51.443Z,59.54
2018-07-13T02:32:19.413Z,59.34
2018-07-13T02:34:47.126Z,59.58
2018-07-13T02:37:15.074Z,59.80
2018-07-13T02:39:42.771Z,59.25
2018-07-13T02:42:10.717Z,59.08
2018-07-13T02:44:39.246Z,58.79
2018-07-13T02:47:07.839Z,59.27
2018-07-13T02:49:36.079Z,58.59
2018-07-13T02:52:03.746Z,59.25
2018-07-13T02:54:31.777Z,58.59
2018-07-13T02:56:59.434Z,58.61
2018-07-13T02:59:27.706Z,58.85
2018-07-13T03:01:55.420Z,58.53
2018-07-13T03:04:23.158Z,58.54
2018-07-13T03:06:51.038Z,58.48
2018-07-13T03:09:18.967Z,58.33
2018-07-13T03:11:46.670Z,58.95
2018-07-13T03:14:14.553Z,59.16
2018-07-13T03:16:42.614Z,59.25
2018-07-13T03:19:10.301Z,59.21
2018-07-13T03:21:38.241Z,59.12
2018-07-13T03:24:05.954Z,59.05
2018-07-13T03:26:33.645Z,58.95
2018-07-13T03:29:02.019Z,58.25
2018-07-13T03:31:29.686Z,59.00
2018-07-13T03:33:57.341Z,58.46
2018-07-13T03:36:25.099Z,58.16
2018-07-13T03:38:52.803Z,58.59
2018-07-13T03:41:20.843Z,59.06
2018-07-13T03:43:48.557Z,59.20
2018-07-13T03:46:16.834Z,59.01
2018-07-13T03:48:44.791Z,59.29
2018-07-13T03:51:12.461Z,59.47
2018-07-13T03:53:40.179Z,59.25
2018-07-13T03:56:08.503Z,59.07
2018-07-13T03:58:36.775Z,58.53
2018-07-13T04:01:04.456Z,59.05
2018-07-13T04:03:32.461Z,58.42
2018-07-13T04:06:00.529Z,58.63
2018-07-13T04:08:28.166Z,59.10
2018-07-13T04:10:56.148Z,59.69
2018-07-13T04:13:24.018Z,59.19
2018-07-13T04:15:51.958Z,59.67
2018-07-13T04:18:26.466Z,59.52
2018-07-13T04:20:54.222Z,58.83
2018-07-13T04:23:23.027Z,58.61
2018-07-13T04:25:50.958Z,59.28
2018-07-13T04:28:19.687Z,59.54
2018-07-13T04:30:47.435Z,58.67
2018-07-13T04:33:15.151Z,59.04
2018-07-13T04:35:43.321Z,59.00
2018-07-13T04:38:11.356Z,58.62
2018-07-13T04:40:39.040Z,58.45
2018-07-13T04:43:06.873Z,58.90
2018-07-13T04:45:34.560Z,58.73
2018-07-13T04:48:02.409Z,58.81
2018-07-13T04:50:30.546Z,58.07
2018-07-13T04:52:58.240Z,58.29
2018-07-13T04:55:26.074Z,58.77
2018-07-13T04:57:53.867Z,58.67
2018-07-13T05:00:21.940Z,57.89
2018-07-13T05:02:50.254Z,58.43
2018-07-13T05:05:18.578Z,57.96
2018-07-13T05:07:46.561Z,57.67
2018-07-13T05:10:14.245Z,57.44
2018-07-13T05:12:41.927Z,57.45
2018-07-13T05:15:09.665Z,57.95
2018-07-13T05:17:38.097Z,58.01
2018-07-13T05:20:06.147Z,57.25
2018-07-13T05:22:35.224Z,57.39
2018-07-13T05:25:03.118Z,58.08
2018-07-13T05:27:30.865Z,57.47
2018-07-13T05:29:59.707Z,57.76
2018-07-13T05:32:27.375Z,58.08
2018-07-13T05:34:55.468Z,59.88
2018-07-13T05:37:23.479Z,60.40
2018-07-13T05:39:51.162Z,59.19
2018-07-13T05:42:19.252Z,58.85
2018-07-13T05:44:47.128Z,59.14
2018-07-13T05:47:15.350Z,58.63
2018-07-13T05:49:43.064Z,58.88
2018-07-13T05:52:10.826Z,58.14
2018-07-13T05:54:38.534Z,58.02
2018-07-13T05:57:06.469Z,58.15
2018-07-13T05:59:34.176Z,58.67
2018-07-13T06:02:01.833Z,58.71
2018-07-13T06:04:29.929Z,58.00
2018-07-13T06:06:57.618Z,58.54
2018-07-13T06:09:25.324Z,58.22
2018-07-13T06:11:53.134Z,57.57
2018-07-13T06:14:20.754Z,57.52
2018-07-13T06:16:48.467Z,57.55
2018-07-13T06:19:16.130Z,58.13
2018-07-13T06:21:44.303Z,57.63
2018-07-13T06:24:12.299Z,58.17
2018-07-13T06:26:40.115Z,57.46
2018-07-13T06:29:07.853Z,57.77
2018-07-13T06:31:35.876Z,57.10
2018-07-13T06:34:03.686Z,57.61
2018-07-13T06:36:31.406Z,57.42
2018-07-13T06:38:59.123Z,57.37
2018-07-13T06:41:26.877Z,57.43
2018-07-13T06:43:54.578Z,57.33
2018-07-13T06:46:22.257Z,56.54
2018-07-13T06:48:49.946Z,56.51
2018-07-13T06:51:17.706Z,57.19
2018-07-13T06:53:45.443Z,57.00
2018-07-13T06:56:13.096Z,57.07
2018-07-13T06:58:51.944Z,57.14
2018-07-13T07:01:19.680Z,56.97
2018-07-13T07:04:54.061Z,56.83
2018-07-13T07:07:23.784Z,56.82
2018-07-13T07:09:55.770Z,56.23
2018-07-13T07:12:50.420Z,56.11
2018-07-13T07:15:18.105Z,56.74
2018-07-13T07:17:46.190Z,56.66
2018-07-13T07:20:14.960Z,56.17
2018-07-13T07:22:43.251Z,55.99
2018-07-13T07:25:10.936Z,56.22
2018-07-13T07:27:38.952Z,55.90
2018-07-13T07:30:06.909Z,55.79
2018-07-13T07:32:35.121Z,55.51
2018-07-13T07:35:03.159Z,56.03
2018-07-13T07:37:30.858Z,55.29
2018-07-13T07:39:58.558Z,55.27
2018-07-13T07:42:26.311Z,55.91
2018-07-13T07:44:54.058Z,55.40
2018-07-13T07:47:21.777Z,55.52
2018-07-13T07:49:49.594Z,55.29
2018-07-13T07:52:17.261Z,55.01
2018-07-13T07:54:45.203Z,54.62
2018-07-13T07:57:12.945Z,54.60
2018-07-13T07:59:40.603Z,54.87
2018-07-13T08:02:08.511Z,54.97
2018-07-13T08:04:36.743Z,54.33
2018-07-13T08:07:04.791Z,54.57
2018-07-13T08:09:32.186Z,54.75
2018-07-13T08:11:59.922Z,54.63
2018-07-13T08:14:27.657Z,54.94
2018-07-13T08:16:55.317Z,54.25
2018-07-13T08:19:23.249Z,54.93
2018-07-13T08:21:51.085Z,54.18
2018-07-13T08:24:21.631Z,53.83
2018-07-13T08:26:51.959Z,54.87
2018-07-13T08:29:21.789Z,55.10
2018-07-13T08:31:49.480Z,54.09
2018-07-13T08:34:17.496Z,54.18
2018-07-13T08:36:45.424Z,54.08
2018-07-13T08:39:13.130Z,54.47
2018-07-13T08:41:41.024Z,54.15
2018-07-13T08:44:08.734Z,53.56
2018-07-13T08:46:36.754Z,54.35
2018-07-13T08:49:04.753Z,53.40
2018-07-13T08:51:32.443Z,53.62
2018-07-13T08:54:00.420Z,54.17
2018-07-13T08:56:28.162Z,54.17
2018-07-13T08:58:55.840Z,53.44
2018-07-13T09:01:23.574Z,54.13
2018-07-13T09:03:51.264Z,53.89
2018-07-13T09:06:19.249Z,53.55
2018-07-13T09:08:47.095Z,53.22
2018-07-13T09:11:14.744Z,54.03
2018-07-13T09:13:42.736Z,53.33
2018-07-13T09:16:10.773Z,53.85
2018-07-13T09:18:38.432Z,52.87
2018-07-13T09:21:06.114Z,53.57
2018-07-13T09:23:34.077Z,53.84
2018-07-13T09:26:01.975Z,53.04
2018-07-13T09:28:29.623Z,53.59
2018-07-13T09:30:57.511Z,53.69
2018-07-13T09:33:25.313Z,53.70
2018-07-13T09:35:53.055Z,52.85
2018-07-13T09:38:20.724Z,53.64
2018-07-13T09:40:48.401Z,52.90
2018-07-13T09:43:16.717Z,53.67
2018-07-13T09:45:44.425Z,52.84
2018-07-13T09:48:12.314Z,53.57
2018-07-13T09:50:40.287Z,52.88
2018-07-13T09:53:07.984Z,53.05
2018-07-13T09:55:36.164Z,53.05
2018-07-13T09:58:03.869Z,52.85
2018-07-13T10:00:37.006Z,53.40
2018-07-13T10:03:05.604Z,53.21
2018-07-13T10:05:33.508Z,52.73
2018-07-13T10:08:01.443Z,52.81
2018-07-13T10:10:29.112Z,53.22
2018-07-13T10:12:57.158Z,53.64
2018-07-13T10:15:24.835Z,54.10
2018-07-13T10:17:52.541Z,53.92
2018-07-13T10:20:20.228Z,53.93
2018-07-13T10:22:47.898Z,53.86
2018-07-13T10:25:15.566Z,53.61
2018-07-13T10:27:43.221Z,53.33
2018-07-13T10:30:12.187Z,53.04
2018-07-13T10:32:41.032Z,53.76
2018-07-13T10:35:09.310Z,53.44
2018-07-13T10:37:37.146Z,53.74
2018-07-13T10:40:04.837Z,53.18
2018-07-13T10:42:32.514Z,53.33
2018-07-13T10:45:00.177Z,53.76
2018-07-13T10:47:27.837Z,53.32
2018-07-13T10:49:56.280Z,52.95
2018-07-13T10:52:24.162Z,53.31
2018-07-13T10:54:51.839Z,53.24
2018-07-13T10:57:19.553Z,53.00
2018-07-13T10:59:47.495Z,53.42
2018-07-13T11:02:15.142Z,53.00
2018-07-13T11:04:43.044Z,53.22
2018-07-13T11:07:11.310Z,53.36
2018-07-13T11:09:39.350Z,52.96
2018-07-13T11:12:07.302Z,52.75
2018-07-13T11:14:34.980Z,53.47
2018-07-13T11:17:02.621Z,52.83
2018-07-13T11:19:30.614Z,53.06
2018-07-13T11:21:58.501Z,53.24
2018-07-13T11:24:26.267Z,52.74
2018-07-13T11:26:53.945Z,52.98
2018-07-13T11:29:21.590Z,52.40
2018-07-13T11:31:49.273Z,53.11
2018-07-13T11:34:17.628Z,52.35
2018-07-13T11:36:45.429Z,52.84
2018-07-13T11:39:13.310Z,52.88
2018-07-13T11:41:41.007Z,52.23
2018-07-13T11:44:08.973Z,52.88
2018-07-13T11:46:37.158Z,52.94
2018-07-13T11:49:04.846Z,52.63
2018-07-13T11:51:32.732Z,52.37
2018-07-13T11:54:00.801Z,52.21
2018-07-13T11:56:28.465Z,52.85
2018-07-13T11:58:56.503Z,52.56
2018-07-13T12:01:24.192Z,52.90
2018-07-13T12:03:51.883Z,52.26
2018-07-13T12:06:20.019Z,52.29
2018-07-13T12:08:47.914Z,52.85
2018-07-13T12:11:15.936Z,52.30
2018-07-13T12:13:43.772Z,51.98
2018-07-13T12:16:11.641Z,52.74
2018-07-13T12:18:39.591Z,51.82
2018-07-13T12:21:07.841Z,52.63
2018-07-13T12:23:35.498Z,52.50
2018-07-13T12:26:03.153Z,51.85
2018-07-13T12:28:30.801Z,52.35
2018-07-13T12:30:58.867Z,51.40
2018-07-13T12:33:27.187Z,51.26
2018-07-13T12:35:55.205Z,51.51
2018-07-13T12:38:23.281Z,52.30
2018-07-13T12:40:50.942Z,52.48
2018-07-13T12:43:18.878Z,52.55
2018-07-13T12:45:46.830Z,51.68
2018-07-13T12:48:14.763Z,51.62
2018-07-13T12:50:42.667Z,51.53
2018-07-13T12:53:10.354Z,52.20
2018-07-13T12:55:38.014Z,51.63
2018-07-13T12:58:05.972Z,52.43
2018-07-13T13:00:34.363Z,51.81
2018-07-13T13:03:02.378Z,51.35
2018-07-13T13:05:30.109Z,51.00
2018-07-13T13:07:57.991Z,51.81
2018-07-13T13:10:25.613Z,51.07
2018-07-13T13:12:53.379Z,51.73
2018-07-13T13:15:21.041Z,51.32
2018-07-13T13:17:48.758Z,51.54
2018-07-13T13:20:17.070Z,51.91
2018-07-13T13:22:44.781Z,51.42
2018-07-13T13:25:12.762Z,51.11
2018-07-13T13:27:40.882Z,50.55
2018-07-13T13:30:08.573Z,50.41
2018-07-13T13:32:36.476Z,51.13
2018-07-13T13:35:04.187Z,50.75
2018-07-13T13:37:31.871Z,50.78
2018-07-13T13:39:59.528Z,51.06
2018-07-13T13:42:27.533Z,50.31
2018-07-13T13:44:55.179Z,51.05
2018-07-13T13:47:22.837Z,50.96
2018-07-13T13:49:50.575Z,50.41
2018-07-13T13:52:19.085Z,50.91
2018-07-13T13:54:47.079Z,50.33
2018-07-13T13:57:15.158Z,50.91
2018-07-13T13:59:43.148Z,51.10
2018-07-13T14:02:11.106Z,50.76
2018-07-13T14:04:39.070Z,51.12
2018-07-13T14:07:07.045Z,51.09
2018-07-13T14:09:34.728Z,50.72
2018-07-13T14:12:02.663Z,50.17
2018-07-13T14:14:31.179Z,50.97
2018-07-13T14:16:59.276Z,51.45
2018-07-13T14:19:26.937Z,51.11
2018-07-13T14:21:54.977Z,50.92
2018-07-13T14:24:22.651Z,51.75
2018-07-13T14:26:50.317Z,51.30
2018-07-13T14:29:18.592Z,50.87
2018-07-13T14:31:46.257Z,50.84
2018-07-13T14:34:14.189Z,51.52
2018-07-13T14:36:41.829Z,50.82
2018-07-13T14:39:10.218Z,50.77
2018-07-13T14:41:37.915Z,49.04
2018-07-13T14:44:05.661Z,49.51
2018-07-13T14:46:33.437Z,50.29
2018-07-13T14:49:01.149Z,49.44
2018-07-13T14:51:28.773Z,48.87
2018-07-13T14:53:56.409Z,48.28
2018-07-13T14:56:24.137Z,46.15
2018-07-13T14:58:52.285Z,43.13
2018-07-13T15:01:20.232Z,43.24
2018-07-13T15:03:47.884Z,44.60
2018-07-13T15:06:15.762Z,45.67
2018-07-13T15:08:43.926Z,46.36
2018-07-13T15:11:11.844Z,48.05
2018-07-13T15:13:40.621Z,48.64
2018-07-13T15:16:08.282Z,48.94
2018-07-13T15:18:35.964Z,48.97
2018-07-13T15:21:03.637Z,49.58
2018-07-13T15:23:31.584Z,49.41
2018-07-13T15:26:00.083Z,49.80
2018-07-13T15:28:28.218Z,48.76
2018-07-13T15:30:55.898Z,50.20
2018-07-13T15:33:24.500Z,49.96
2018-07-13T15:35:52.136Z,49.33
2018-07-13T15:38:19.912Z,49.78
2018-07-13T15:40:47.904Z,49.70
2018-07-13T15:43:15.595Z,50.02
2018-07-13T15:45:43.356Z,49.99
2018-07-13T15:48:11.025Z,50.52
2018-07-13T15:50:38.659Z,50.58
2018-07-13T15:53:06.706Z,50.34
2018-07-13T15:55:40.286Z,50.60
2018-07-13T15:58:08.830Z,50.75
2018-07-13T16:00:36.892Z,50.44
2018-07-13T16:03:05.392Z,50.98
2018-07-13T16:05:33.077Z,50.67
2018-07-13T16:08:01.529Z,51.03
2018-07-13T16:10:29.231Z,51.19
2018-07-13T16:12:57.176Z,51.65
2018-07-13T16:15:25.412Z,52.22
2018-07-13T16:17:53.106Z,51.59
2018-07-13T16:20:21.021Z,51.72
2018-07-13T16:22:49.605Z,51.63
2018-07-13T16:25:17.225Z,52.55
2018-07-13T16:27:44.940Z,52.27
2018-07-13T16:30:12.634Z,52.04
2018-07-13T16:32:40.335Z,52.02
2018-07-13T16:35:08.872Z,52.20
2018-07-13T16:37:36.539Z,53.13
2018-07-13T16:40:04.387Z,53.38
2018-07-13T16:42:32.358Z,53.33
2018-07-13T16:45:00.059Z,52.53
2018-07-13T16:47:27.689Z,53.70
2018-07-13T16:49:55.771Z,53.15
2018-07-13T16:52:23.550Z,53.70
2018-07-13T16:54:52.120Z,53.57
2018-07-13T16:57:19.855Z,53.51
2018-07-13T16:59:47.810Z,53.55
2018-07-13T17:02:15.523Z,53.00
2018-07-13T17:04:43.613Z,52.91
2018-07-13T17:07:11.639Z,52.25
2018-07-13T17:09:39.406Z,51.73
2018-07-13T17:12:07.367Z,51.47
2018-07-13T17:14:35.271Z,51.30
2018-07-13T17:17:02.982Z,51.42
2018-07-13T17:19:30.669Z,51.61
2018-07-13T17:21:58.344Z,51.71
2018-07-13T17:24:26.032Z,52.16
2018-07-13T17:26:53.674Z,52.83
2018-07-13T17:29:21.573Z,52.94
2018-07-13T17:31:49.259Z,52.26
2018-07-13T17:34:17.196Z,52.71
2018-07-13T17:36:44.848Z,53.32
2018-07-13T17:39:12.843Z,52.87
2018-07-13T17:41:40.530Z,53.59
2018-07-13T17:44:08.227Z,53.67
2018-07-13T17:46:35.911Z,53.70
2018-07-13T17:49:03.652Z,52.84
2018-07-13T17:51:31.668Z,53.00
2018-07-13T17:53:59.331Z,53.38
2018-07-13T17:56:27.712Z,54.28
2018-07-13T17:58:55.772Z,53.59
2018-07-13T18:01:23.434Z,54.23
2018-07-13T18:03:51.353Z,54.32
2018-07-13T18:06:19.341Z,53.65
2018-07-13T18:08:47.249Z,54.48
2018-07-13T18:11:15.224Z,54.62
2018-07-13T18:13:43.115Z,54.00
2018-07-13T18:16:10.800Z,54.13
2018-07-13T18:18:38.463Z,54.72
2018-07-13T18:21:06.425Z,54.47
2018-07-13T18:23:34.758Z,54.44
2018-07-13T18:26:02.422Z,54.81
2018-07-13T18:28:30.470Z,54.57
2018-07-13T18:30:58.170Z,55.30
2018-07-13T18:33:25.882Z,55.28
2018-07-13T18:35:53.891Z,55.02
2018-07-13T18:38:21.548Z,54.91
2018-07-13T18:40:49.453Z,54.65
2018-07-13T18:43:17.388Z,55.56
2018-07-13T18:45:45.540Z,54.74
2018-07-13T18:48:13.459Z,55.60
2018-07-13T18:50:41.365Z,55.64
2018-07-13T18:53:09.060Z,55.69
2018-07-13T18:55:36.715Z,55.91
2018-07-13T18:58:04.547Z,55.15
2018-07-13T19:00:32.241Z,55.78
2018-07-13T19:02:59.972Z,55.23
2018-07-13T19:05:27.963Z,55.30
2018-07-13T19:07:55.950Z,55.31
2018-07-13T19:10:23.686Z,55.54
2018-07-13T19:12:51.400Z,56.11
2018-07-13T19:15:19.834Z,56.03
2018-07-13T19:17:47.519Z,55.66
2018-07-13T19:20:15.197Z,55.64
2018-07-13T19:22:43.036Z,56.38
2018-07-13T19:25:10.867Z,56.34
2018-07-13T19:27:39.360Z,56.40
2018-07-13T19:30:07.503Z,56.47
2018-07-13T19:32:35.473Z,56.13
2018-07-13T19:35:03.632Z,56.41
2018-07-13T19:37:31.765Z,56.51
2018-07-13T19:39:59.537Z,55.81
2018-07-13T19:42:27.384Z,56.06
2018-07-13T19:44:55.090Z,55.93
2018-07-13T19:47:23.078Z,55.99
2018-07-13T19:49:51.565Z,56.03
2018-07-13T19:52:19.882Z,56.71
2018-07-13T19:54:47.580Z,56.72
2018-07-13T19:57:15.308Z,55.96
2018-07-13T19:59:43.281Z,56.10
2018-07-13T20:02:10.962Z,56.14
2018-07-13T20:04:39.105Z,56.83
2018-07-13T20:07:07.019Z,56.22
2018-07-13T20:09:34.729Z,56.54
2018-07-13T20:12:02.476Z,56.75
2018-07-13T20:14:30.626Z,55.92
2018-07-13T20:16:58.475Z,56.83
2018-07-13T20:19:26.065Z,56.36
2018-07-13T20:21:54.042Z,56.82
2018-07-13T20:24:21.742Z,55.86
2018-07-13T20:26:50.281Z,56.79
2018-07-13T20:29:18.377Z,56.25
2018-07-13T20:31:46.060Z,56.31
2018-07-13T20:34:14.350Z,56.44
2018-07-13T20:36:42.060Z,56.46
2018-07-13T20:39:09.957Z,56.46
2018-07-13T20:41:37.666Z,56.48
2018-07-13T20:44:05.585Z,56.28
2018-07-13T20:46:33.309Z,56.40
2018-07-13T20:49:01.117Z,56.38
2018-07-13T20:51:28.797Z,57.04
2018-07-13T20:53:56.473Z,56.54
2018-07-13T20:56:24.506Z,57.07
2018-07-13T20:58:52.159Z,57.16
2018-07-13T21:01:19.829Z,57.02
2018-07-13T21:03:47.555Z,56.60
2018-07-13T21:06:15.390Z,57.30
2018-07-13T21:08:43.097Z,57.21
2018-07-13T21:11:10.790Z,56.56
2018-07-13T21:13:38.538Z,57.04
2018-07-13T21:16:06.886Z,57.24
2018-07-13T21:18:35.289Z,57.09
2018-07-13T21:21:03.232Z,56.50
2018-07-13T21:23:30.918Z,57.27
2018-07-13T21:25:59.816Z,57.13
2018-07-13T21:28:27.470Z,57.37
2018-07-13T21:30:55.529Z,56.62
2018-07-13T21:33:25.289Z,57.09
2018-07-13T21:35:53.262Z,57.26
2018-07-13T21:38:20.934Z,57.18
2018-07-13T21:40:48.598Z,57.37
2018-07-13T21:43:16.721Z,56.64
2018-07-13T21:45:44.765Z,57.60
2018-07-13T21:48:12.388Z,57.25
2018-07-13T21:50:40.300Z,57.42
2018-07-13T21:53:08.024Z,56.78
2018-07-13T21:55:35.972Z,57.13
2018-07-13T21:58:03.946Z,56.71
2018-07-13T22:00:31.629Z,57.32
2018-07-13T22:02:59.615Z,56.66
2018-07-13T22:05:27.661Z,57.22
2018-07-13T22:07:55.334Z,56.85
2018-07-13T22:10:23.473Z,56.98
2018-07-13T22:12:51.134Z,56.86
2018-07-13T22:15:19.070Z,57.49
2018-07-13T22:17:46.775Z,57.24
2018-07-13T22:20:14.449Z,57.54
2018-07-13T22:22:42.174Z,57.03
2018-07-13T22:25:10.086Z,56.70
2018-07-13T22:27:38.670Z,57.34
2018-07-13T22:30:06.796Z,57.16
2018-07-13T22:32:35.131Z,57.15
2018-07-13T22:35:03.335Z,56.78
2018-07-13T22:37:31.365Z,57.32
2018-07-13T22:39:59.326Z,57.29
2018-07-13T22:42:27.017Z,57.37
2018-07-13T22:44:55.039Z,57.47
2018-07-13T22:47:23.216Z,57.37
2018-07-13T22:49:51.292Z,56.74
2018-07-13T22:52:18.981Z,56.75
2018-07-13T22:54:46.937Z,56.86
2018-07-13T22:57:14.670Z,56.88
2018-07-13T22:59:42.342Z,56.81
2018-07-13T23:02:09.986Z,56.80
2018-07-13T23:04:38.198Z,57.63
2018-07-13T23:07:06.329Z,57.42
2018-07-13T23:09:34.400Z,57.37
2018-07-13T23:12:02.050Z,57.09
2018-07-13T23:14:29.723Z,56.85
2018-07-13T23:16:57.413Z,56.90
2018-07-13T23:19:25.106Z,56.87
2018-07-13T23:21:53.341Z,56.90
2018-07-13T23:24:21.062Z,56.77
2018-07-13T23:26:48.996Z,57.41
2018-07-13T23:29:17.052Z,56.75
2018-07-13T23:31:44.720Z,56.87
2018-07-13T23:34:12.728Z,57.59
2018-07-13T23:36:40.622Z,56.96
2018-07-13T23:39:08.316Z,57.58
2018-07-13T23:41:36.292Z,57.41
2018-07-13T23:44:03.956Z,57.59
2018-07-13T23:46:32.230Z,57.47
2018-07-13T23:49:00.448Z,57.29
2018-07-13T23:51:28.189Z,56.88
2018-07-13T23:53:55.915Z,56.95
2018-07-13T23:56:23.949Z,56.93
2018-07-13T23:58:52.030Z,56.93
